sensor_id;sensor_type;location;lat;lon;timestamp;P1;durP1;ratioP1;P2;durP2;ratioP2
48263;SDS011;34086;51.076;13.722;2023-12-29T00:00:51;4.20;;;2.60;;
48263;SDS011;34086;51.076;13.722;2023-12-29T00:01:52;3.60;;;2.47;;
48263;SDS011;34086;51.076;13.722;2023-12-29T00:02:52;3.70;;;2.70;;
48263;SDS011;34086;51.076;13.722;2023-12-29T00:03:53;3.72;;;2.40;;
48263;SDS011;34086;51.076;13.722;2023-12-29T00:04:54;4.80;;;2.65;;
48263;SDS011;34086;51.076;13.722;2023-12-29T00:05:54;3.30;;;2.53;;
48263;SDS011;34086;51.076;13.722;2023-12-29T00:06:55;3.35;;;2.55;;
48263;SDS011;34086;51.076;13.722;2023-12-29T00:07:55;3.47;;;2.67;;
48263;SDS011;34086;51.076;13.722;2023-12-29T00:08:56;3.20;;;2.50;;
48263;SDS011;34086;51.076;13.722;2023-12-29T00:09:57;3.92;;;2.50;;
48263;SDS011;34086;51.076;13.722;2023-12-29T00:10:57;3.13;;;2.70;;
48263;SDS011;34086;51.076;13.722;2023-12-29T00:11:58;5.80;;;2.80;;
48263;SDS011;34086;51.076;13.722;2023-12-29T00:12:59;4.47;;;2.60;;
48263;SDS011;34086;51.076;13.722;2023-12-29T00:13:59;4.47;;;2.72;;
48263;SDS011;34086;51.076;13.722;2023-12-29T00:15:01;4.28;;;2.80;;
48263;SDS011;34086;51.076;13.722;2023-12-29T00:16:03;4.10;;;2.90;;
48263;SDS011;34086;51.076;13.722;2023-12-29T00:17:04;3.70;;;2.72;;
48263;SDS011;34086;51.076;13.722;2023-12-29T00:18:04;3.75;;;2.75;;
48263;SDS011;34086;51.076;13.722;2023-12-29T00:19:05;4.47;;;2.80;;
48263;SDS011;34086;51.076;13.722;2023-12-29T00:20:06;3.88;;;2.70;;
48263;SDS011;34086;51.076;13.722;2023-12-29T00:21:10;3.65;;;2.80;;
48263;SDS011;34086;51.076;13.722;2023-12-29T00:22:10;4.10;;;2.88;;
48263;SDS011;34086;51.076;13.722;2023-12-29T00:23:11;3.35;;;2.88;;
48263;SDS011;34086;51.076;13.722;2023-12-29T00:24:11;3.92;;;2.78;;
48263;SDS011;34086;51.076;13.722;2023-12-29T00:25:12;4.60;;;2.85;;
48263;SDS011;34086;51.076;13.722;2023-12-29T00:26:13;5.47;;;2.97;;
48263;SDS011;34086;51.076;13.722;2023-12-29T00:27:16;5.03;;;3.03;;
48263;SDS011;34086;51.076;13.722;2023-12-29T00:28:17;5.20;;;2.90;;
48263;SDS011;34086;51.076;13.722;2023-12-29T00:29:17;3.83;;;3.00;;
48263;SDS011;34086;51.076;13.722;2023-12-29T00:30:18;4.88;;;2.80;;
48263;SDS011;34086;51.076;13.722;2023-12-29T00:31:20;3.30;;;2.65;;
48263;SDS011;34086;51.076;13.722;2023-12-29T00:32:20;4.50;;;2.70;;
48263;SDS011;34086;51.076;13.722;2023-12-29T00:33:21;3.95;;;2.80;;
48263;SDS011;34086;51.076;13.722;2023-12-29T00:34:22;4.25;;;2.60;;
48263;SDS011;34086;51.076;13.722;2023-12-29T00:35:22;3.58;;;2.58;;
48263;SDS011;34086;51.076;13.722;2023-12-29T00:36:23;3.88;;;2.70;;
48263;SDS011;34086;51.076;13.722;2023-12-29T00:37:24;3.03;;;2.60;;
48263;SDS011;34086;51.076;13.722;2023-12-29T00:38:26;4.00;;;2.65;;
48263;SDS011;34086;51.076;13.722;2023-12-29T00:39:30;3.10;;;2.53;;
48263;SDS011;34086;51.076;13.722;2023-12-29T00:40:38;2.95;;;2.50;;
48263;SDS011;34086;51.076;13.722;2023-12-29T00:41:39;4.50;;;2.65;;
48263;SDS011;34086;51.076;13.722;2023-12-29T00:42:41;3.13;;;2.30;;
48263;SDS011;34086;51.076;13.722;2023-12-29T00:43:41;4.70;;;2.65;;
48263;SDS011;34086;51.076;13.722;2023-12-29T00:44:42;3.92;;;2.53;;
48263;SDS011;34086;51.076;13.722;2023-12-29T00:45:42;2.75;;;2.55;;
48263;SDS011;34086;51.076;13.722;2023-12-29T00:46:43;3.40;;;2.50;;
48263;SDS011;34086;51.076;13.722;2023-12-29T00:47:43;3.97;;;2.30;;
48263;SDS011;34086;51.076;13.722;2023-12-29T00:48:44;2.80;;;2.53;;
48263;SDS011;34086;51.076;13.722;2023-12-29T00:49:45;3.33;;;2.42;;
48263;SDS011;34086;51.076;13.722;2023-12-29T00:50:45;3.75;;;2.50;;
48263;SDS011;34086;51.076;13.722;2023-12-29T00:51:47;3.17;;;2.53;;
48263;SDS011;34086;51.076;13.722;2023-12-29T00:52:47;3.78;;;2.40;;
48263;SDS011;34086;51.076;13.722;2023-12-29T00:53:49;4.20;;;2.40;;
48263;SDS011;34086;51.076;13.722;2023-12-29T00:54:50;3.25;;;2.35;;
48263;SDS011;34086;51.076;13.722;2023-12-29T00:55:50;3.75;;;2.65;;
48263;SDS011;34086;51.076;13.722;2023-12-29T00:56:51;3.63;;;2.47;;
48263;SDS011;34086;51.076;13.722;2023-12-29T00:57:52;2.90;;;2.40;;
48263;SDS011;34086;51.076;13.722;2023-12-29T00:58:53;3.45;;;2.30;;
48263;SDS011;34086;51.076;13.722;2023-12-29T00:59:54;2.63;;;2.20;;
48263;SDS011;34086;51.076;13.722;2023-12-29T01:00:54;2.50;;;2.25;;
48263;SDS011;34086;51.076;13.722;2023-12-29T01:01:55;2.40;;;2.15;;
48263;SDS011;34086;51.076;13.722;2023-12-29T01:02:56;3.10;;;2.20;;
48263;SDS011;34086;51.076;13.722;2023-12-29T01:03:56;2.47;;;2.20;;
48263;SDS011;34086;51.076;13.722;2023-12-29T01:04:57;5.20;;;2.28;;
48263;SDS011;34086;51.076;13.722;2023-12-29T01:05:59;4.35;;;2.22;;
48263;SDS011;34086;51.076;13.722;2023-12-29T01:07:00;2.80;;;2.22;;
48263;SDS011;34086;51.076;13.722;2023-12-29T01:08:01;2.80;;;2.13;;
48263;SDS011;34086;51.076;13.722;2023-12-29T01:09:01;4.40;;;2.25;;
48263;SDS011;34086;51.076;13.722;2023-12-29T01:10:02;4.32;;;2.33;;
48263;SDS011;34086;51.076;13.722;2023-12-29T01:11:03;3.78;;;2.20;;
48263;SDS011;34086;51.076;13.722;2023-12-29T01:12:04;2.80;;;2.10;;
48263;SDS011;34086;51.076;13.722;2023-12-29T01:13:04;2.40;;;2.15;;
48263;SDS011;34086;51.076;13.722;2023-12-29T01:14:05;4.63;;;2.47;;
48263;SDS011;34086;51.076;13.722;2023-12-29T01:15:06;3.78;;;2.17;;
48263;SDS011;34086;51.076;13.722;2023-12-29T01:16:07;2.75;;;2.10;;
48263;SDS011;34086;51.076;13.722;2023-12-29T01:17:08;2.40;;;2.20;;
48263;SDS011;34086;51.076;13.722;2023-12-29T01:18:08;2.20;;;2.00;;
48263;SDS011;34086;51.076;13.722;2023-12-29T01:19:09;2.70;;;2.20;;
48263;SDS011;34086;51.076;13.722;2023-12-29T01:20:10;3.13;;;2.00;;
48263;SDS011;34086;51.076;13.722;2023-12-29T01:21:10;3.03;;;2.17;;
48263;SDS011;34086;51.076;13.722;2023-12-29T01:22:11;2.50;;;2.22;;
48263;SDS011;34086;51.076;13.722;2023-12-29T01:23:11;2.35;;;2.10;;
48263;SDS011;34086;51.076;13.722;2023-12-29T01:24:12;2.45;;;2.00;;
48263;SDS011;34086;51.076;13.722;2023-12-29T01:25:13;2.95;;;2.00;;
48263;SDS011;34086;51.076;13.722;2023-12-29T01:26:13;4.55;;;2.00;;
48263;SDS011;34086;51.076;13.722;2023-12-29T01:27:14;3.72;;;2.15;;
48263;SDS011;34086;51.076;13.722;2023-12-29T01:28:14;2.60;;;2.10;;
48263;SDS011;34086;51.076;13.722;2023-12-29T01:29:16;3.83;;;2.00;;
48263;SDS011;34086;51.076;13.722;2023-12-29T01:30:16;3.05;;;2.13;;
48263;SDS011;34086;51.076;13.722;2023-12-29T01:31:17;3.08;;;2.10;;
48263;SDS011;34086;51.076;13.722;2023-12-29T01:32:18;2.65;;;2.15;;
48263;SDS011;34086;51.076;13.722;2023-12-29T01:33:22;2.25;;;2.00;;
48263;SDS011;34086;51.076;13.722;2023-12-29T01:34:22;2.30;;;2.08;;
48263;SDS011;34086;51.076;13.722;2023-12-29T01:35:23;2.28;;;2.08;;
48263;SDS011;34086;51.076;13.722;2023-12-29T01:36:24;2.10;;;1.88;;
48263;SDS011;34086;51.076;13.722;2023-12-29T01:37:24;2.85;;;1.90;;
48263;SDS011;34086;51.076;13.722;2023-12-29T01:38:25;2.10;;;1.90;;
48263;SDS011;34086;51.076;13.722;2023-12-29T01:39:26;2.28;;;1.85;;
48263;SDS011;34086;51.076;13.722;2023-12-29T01:40:26;2.30;;;2.00;;
48263;SDS011;34086;51.076;13.722;2023-12-29T01:41:27;2.58;;;1.83;;
48263;SDS011;34086;51.076;13.722;2023-12-29T01:42:27;1.88;;;1.77;;
48263;SDS011;34086;51.076;13.722;2023-12-29T01:43:28;2.40;;;2.00;;
48263;SDS011;34086;51.076;13.722;2023-12-29T01:44:28;2.60;;;1.90;;
48263;SDS011;34086;51.076;13.722;2023-12-29T01:45:29;2.10;;;1.90;;
48263;SDS011;34086;51.076;13.722;2023-12-29T01:46:31;2.75;;;2.10;;
48263;SDS011;34086;51.076;13.722;2023-12-29T01:47:34;3.33;;;1.90;;
48263;SDS011;34086;51.076;13.722;2023-12-29T01:48:34;3.17;;;1.90;;
48263;SDS011;34086;51.076;13.722;2023-12-29T01:49:35;2.47;;;1.90;;
48263;SDS011;34086;51.076;13.722;2023-12-29T01:50:36;2.03;;;1.83;;
48263;SDS011;34086;51.076;13.722;2023-12-29T01:51:37;2.30;;;1.80;;
48263;SDS011;34086;51.076;13.722;2023-12-29T01:52:38;7.25;;;2.00;;
48263;SDS011;34086;51.076;13.722;2023-12-29T01:53:39;3.20;;;1.80;;
48263;SDS011;34086;51.076;13.722;2023-12-29T01:54:40;2.08;;;1.80;;
48263;SDS011;34086;51.076;13.722;2023-12-29T01:55:42;2.00;;;1.80;;
48263;SDS011;34086;51.076;13.722;2023-12-29T01:56:44;3.58;;;1.67;;
48263;SDS011;34086;51.076;13.722;2023-12-29T01:57:45;2.50;;;1.83;;
48263;SDS011;34086;51.076;13.722;2023-12-29T01:58:50;2.08;;;1.65;;
48263;SDS011;34086;51.076;13.722;2023-12-29T01:59:51;1.92;;;1.55;;
48263;SDS011;34086;51.076;13.722;2023-12-29T02:00:52;1.70;;;1.60;;
48263;SDS011;34086;51.076;13.722;2023-12-29T02:01:53;1.70;;;1.60;;
48263;SDS011;34086;51.076;13.722;2023-12-29T02:02:58;1.58;;;1.48;;
48263;SDS011;34086;51.076;13.722;2023-12-29T02:03:59;2.05;;;1.50;;
48263;SDS011;34086;51.076;13.722;2023-12-29T02:04:59;1.55;;;1.40;;
48263;SDS011;34086;51.076;13.722;2023-12-29T02:06:00;2.00;;;1.45;;
48263;SDS011;34086;51.076;13.722;2023-12-29T02:07:01;1.60;;;1.48;;
48263;SDS011;34086;51.076;13.722;2023-12-29T02:08:02;2.17;;;1.30;;
48263;SDS011;34086;51.076;13.722;2023-12-29T02:09:04;1.40;;;1.30;;
48263;SDS011;34086;51.076;13.722;2023-12-29T02:10:04;1.67;;;1.50;;
48263;SDS011;34086;51.076;13.722;2023-12-29T02:11:05;2.80;;;1.50;;
48263;SDS011;34086;51.076;13.722;2023-12-29T02:12:07;1.60;;;1.50;;
48263;SDS011;34086;51.076;13.722;2023-12-29T02:13:07;3.30;;;1.40;;
48263;SDS011;34086;51.076;13.722;2023-12-29T02:14:08;2.45;;;1.50;;
48263;SDS011;34086;51.076;13.722;2023-12-29T02:15:09;1.40;;;1.30;;
48263;SDS011;34086;51.076;13.722;2023-12-29T02:16:22;1.60;;;1.40;;
48263;SDS011;34086;51.076;13.722;2023-12-29T02:17:44;1.48;;;1.35;;
48263;SDS011;34086;51.076;13.722;2023-12-29T02:18:49;1.58;;;1.40;;
48263;SDS011;34086;51.076;13.722;2023-12-29T02:19:51;1.90;;;1.50;;
48263;SDS011;34086;51.076;13.722;2023-12-29T02:20:52;1.42;;;1.33;;
48263;SDS011;34086;51.076;13.722;2023-12-29T02:21:52;2.30;;;1.60;;
48263;SDS011;34086;51.076;13.722;2023-12-29T02:22:53;1.88;;;1.45;;
48263;SDS011;34086;51.076;13.722;2023-12-29T02:23:54;1.50;;;1.40;;
48263;SDS011;34086;51.076;13.722;2023-12-29T02:24:56;2.33;;;1.40;;
48263;SDS011;34086;51.076;13.722;2023-12-29T02:26:00;1.70;;;1.60;;
48263;SDS011;34086;51.076;13.722;2023-12-29T02:27:29;1.40;;;1.30;;
48263;SDS011;34086;51.076;13.722;2023-12-29T02:28:59;1.48;;;1.38;;
48263;SDS011;34086;51.076;13.722;2023-12-29T02:31:16;1.63;;;1.52;;
48263;SDS011;34086;51.076;13.722;2023-12-29T02:32:19;2.25;;;1.50;;
48263;SDS011;34086;51.076;13.722;2023-12-29T02:33:23;1.50;;;1.30;;
48263;SDS011;34086;51.076;13.722;2023-12-29T02:34:25;1.92;;;1.50;;
48263;SDS011;34086;51.076;13.722;2023-12-29T02:35:32;1.63;;;1.40;;
48263;SDS011;34086;51.076;13.722;2023-12-29T02:36:36;1.60;;;1.50;;
48263;SDS011;34086;51.076;13.722;2023-12-29T02:37:42;1.50;;;1.40;;
48263;SDS011;34086;51.076;13.722;2023-12-29T02:38:44;2.05;;;1.50;;
48263;SDS011;34086;51.076;13.722;2023-12-29T02:39:45;1.50;;;1.40;;
48263;SDS011;34086;51.076;13.722;2023-12-29T02:40:46;1.65;;;1.38;;
48263;SDS011;34086;51.076;13.722;2023-12-29T02:41:48;1.33;;;1.23;;
48263;SDS011;34086;51.076;13.722;2023-12-29T02:42:49;1.40;;;1.23;;
48263;SDS011;34086;51.076;13.722;2023-12-29T02:43:50;2.42;;;1.50;;
48263;SDS011;34086;51.076;13.722;2023-12-29T02:44:50;1.45;;;1.35;;
48263;SDS011;34086;51.076;13.722;2023-12-29T02:45:51;1.48;;;1.33;;
48263;SDS011;34086;51.076;13.722;2023-12-29T02:46:52;1.38;;;1.27;;
48263;SDS011;34086;51.076;13.722;2023-12-29T02:47:53;1.98;;;1.40;;
48263;SDS011;34086;51.076;13.722;2023-12-29T02:48:53;1.77;;;1.42;;
48263;SDS011;34086;51.076;13.722;2023-12-29T02:49:55;2.20;;;1.60;;
48263;SDS011;34086;51.076;13.722;2023-12-29T02:50:56;1.50;;;1.40;;
48263;SDS011;34086;51.076;13.722;2023-12-29T02:51:56;1.70;;;1.52;;
48263;SDS011;34086;51.076;13.722;2023-12-29T02:52:57;1.35;;;1.25;;
48263;SDS011;34086;51.076;13.722;2023-12-29T02:53:58;2.60;;;1.40;;
48263;SDS011;34086;51.076;13.722;2023-12-29T02:55:00;2.13;;;1.30;;
48263;SDS011;34086;51.076;13.722;2023-12-29T02:56:00;1.67;;;1.40;;
48263;SDS011;34086;51.076;13.722;2023-12-29T02:57:01;1.35;;;1.25;;
48263;SDS011;34086;51.076;13.722;2023-12-29T02:58:01;2.75;;;1.40;;
48263;SDS011;34086;51.076;13.722;2023-12-29T02:59:02;2.00;;;1.38;;
48263;SDS011;34086;51.076;13.722;2023-12-29T03:00:03;1.52;;;1.42;;
48263;SDS011;34086;51.076;13.722;2023-12-29T03:01:05;1.50;;;1.40;;
48263;SDS011;34086;51.076;13.722;2023-12-29T03:02:05;1.40;;;1.30;;
48263;SDS011;34086;51.076;13.722;2023-12-29T03:03:06;1.50;;;1.40;;
48263;SDS011;34086;51.076;13.722;2023-12-29T03:04:06;1.30;;;1.20;;
48263;SDS011;34086;51.076;13.722;2023-12-29T03:05:08;1.30;;;1.20;;
48263;SDS011;34086;51.076;13.722;2023-12-29T03:06:08;1.52;;;1.20;;
48263;SDS011;34086;51.076;13.722;2023-12-29T03:07:09;1.40;;;1.30;;
48263;SDS011;34086;51.076;13.722;2023-12-29T03:08:10;1.33;;;1.20;;
48263;SDS011;34086;51.076;13.722;2023-12-29T03:09:10;1.30;;;1.20;;
48263;SDS011;34086;51.076;13.722;2023-12-29T03:10:11;1.40;;;1.30;;
48263;SDS011;34086;51.076;13.722;2023-12-29T03:11:12;1.92;;;1.23;;
48263;SDS011;34086;51.076;13.722;2023-12-29T03:12:13;1.40;;;1.30;;
48263;SDS011;34086;51.076;13.722;2023-12-29T03:13:13;1.58;;;1.40;;
48263;SDS011;34086;51.076;13.722;2023-12-29T03:14:15;1.83;;;1.30;;
48263;SDS011;34086;51.076;13.722;2023-12-29T03:15:15;1.60;;;1.40;;
48263;SDS011;34086;51.076;13.722;2023-12-29T03:16:16;1.30;;;1.20;;
48263;SDS011;34086;51.076;13.722;2023-12-29T03:17:16;1.60;;;1.50;;
48263;SDS011;34086;51.076;13.722;2023-12-29T03:18:17;1.52;;;1.42;;
48263;SDS011;34086;51.076;13.722;2023-12-29T03:19:18;1.50;;;1.40;;
48263;SDS011;34086;51.076;13.722;2023-12-29T03:20:18;1.50;;;1.40;;
48263;SDS011;34086;51.076;13.722;2023-12-29T03:21:19;1.30;;;1.20;;
48263;SDS011;34086;51.076;13.722;2023-12-29T03:22:19;1.50;;;1.40;;
48263;SDS011;34086;51.076;13.722;2023-12-29T03:23:21;1.70;;;1.60;;
48263;SDS011;34086;51.076;13.722;2023-12-29T03:24:21;1.50;;;1.40;;
48263;SDS011;34086;51.076;13.722;2023-12-29T03:25:22;1.40;;;1.30;;
48263;SDS011;34086;51.076;13.722;2023-12-29T03:26:24;1.65;;;1.55;;
48263;SDS011;34086;51.076;13.722;2023-12-29T03:27:24;1.88;;;1.40;;
48263;SDS011;34086;51.076;13.722;2023-12-29T03:28:25;2.78;;;1.70;;
48263;SDS011;34086;51.076;13.722;2023-12-29T03:29:25;1.70;;;1.60;;
48263;SDS011;34086;51.076;13.722;2023-12-29T03:30:27;1.90;;;1.42;;
48263;SDS011;34086;51.076;13.722;2023-12-29T03:31:28;2.60;;;1.30;;
48263;SDS011;34086;51.076;13.722;2023-12-29T03:32:28;1.70;;;1.60;;
48263;SDS011;34086;51.076;13.722;2023-12-29T03:33:29;1.50;;;1.40;;
48263;SDS011;34086;51.076;13.722;2023-12-29T03:34:30;1.42;;;1.33;;
48263;SDS011;34086;51.076;13.722;2023-12-29T03:35:30;1.65;;;1.45;;
48263;SDS011;34086;51.076;13.722;2023-12-29T03:36:31;1.40;;;1.30;;
48263;SDS011;34086;51.076;13.722;2023-12-29T03:37:31;1.65;;;1.50;;
48263;SDS011;34086;51.076;13.722;2023-12-29T03:38:32;1.60;;;1.50;;
48263;SDS011;34086;51.076;13.722;2023-12-29T03:39:35;1.58;;;1.48;;
48263;SDS011;34086;51.076;13.722;2023-12-29T03:40:35;1.50;;;1.40;;
48263;SDS011;34086;51.076;13.722;2023-12-29T03:41:36;1.50;;;1.40;;
48263;SDS011;34086;51.076;13.722;2023-12-29T03:42:36;2.10;;;1.90;;
48263;SDS011;34086;51.076;13.722;2023-12-29T03:43:37;2.88;;;1.63;;
48263;SDS011;34086;51.076;13.722;2023-12-29T03:44:37;2.08;;;1.60;;
48263;SDS011;34086;51.076;13.722;2023-12-29T03:45:38;1.70;;;1.60;;
48263;SDS011;34086;51.076;13.722;2023-12-29T03:46:39;3.05;;;1.50;;
48263;SDS011;34086;51.076;13.722;2023-12-29T03:47:40;2.33;;;1.90;;
48263;SDS011;34086;51.076;13.722;2023-12-29T03:48:40;1.85;;;1.58;;
48263;SDS011;34086;51.076;13.722;2023-12-29T03:49:41;2.95;;;1.90;;
48263;SDS011;34086;51.076;13.722;2023-12-29T03:50:41;2.88;;;1.65;;
48263;SDS011;34086;51.076;13.722;2023-12-29T03:51:43;1.98;;;1.63;;
48263;SDS011;34086;51.076;13.722;2023-12-29T03:52:44;1.83;;;1.40;;
48263;SDS011;34086;51.076;13.722;2023-12-29T03:53:45;2.10;;;1.60;;
48263;SDS011;34086;51.076;13.722;2023-12-29T03:54:45;2.83;;;1.70;;
48263;SDS011;34086;51.076;13.722;2023-12-29T03:55:46;2.85;;;1.80;;
48263;SDS011;34086;51.076;13.722;2023-12-29T03:56:47;4.45;;;2.33;;
48263;SDS011;34086;51.076;13.722;2023-12-29T03:57:47;4.70;;;2.22;;
48263;SDS011;34086;51.076;13.722;2023-12-29T03:58:48;3.88;;;1.77;;
48263;SDS011;34086;51.076;13.722;2023-12-29T03:59:48;2.15;;;1.70;;
48263;SDS011;34086;51.076;13.722;2023-12-29T04:00:49;1.92;;;1.70;;
48263;SDS011;34086;51.076;13.722;2023-12-29T04:01:49;2.70;;;1.80;;
48263;SDS011;34086;51.076;13.722;2023-12-29T04:02:51;2.13;;;1.83;;
48263;SDS011;34086;51.076;13.722;2023-12-29T04:03:51;1.80;;;1.70;;
48263;SDS011;34086;51.076;13.722;2023-12-29T04:04:52;1.60;;;1.50;;
48263;SDS011;34086;51.076;13.722;2023-12-29T04:05:52;1.63;;;1.52;;
48263;SDS011;34086;51.076;13.722;2023-12-29T04:06:53;1.67;;;1.58;;
48263;SDS011;34086;51.076;13.722;2023-12-29T04:07:54;2.53;;;1.60;;
48263;SDS011;34086;51.076;13.722;2023-12-29T04:08:54;1.83;;;1.63;;
48263;SDS011;34086;51.076;13.722;2023-12-29T04:09:55;2.03;;;1.50;;
48263;SDS011;34086;51.076;13.722;2023-12-29T04:10:55;1.60;;;1.45;;
48263;SDS011;34086;51.076;13.722;2023-12-29T04:11:56;1.60;;;1.50;;
48263;SDS011;34086;51.076;13.722;2023-12-29T04:12:57;2.20;;;1.95;;
48263;SDS011;34086;51.076;13.722;2023-12-29T04:13:57;1.92;;;1.60;;
48263;SDS011;34086;51.076;13.722;2023-12-29T04:14:58;1.60;;;1.50;;
48263;SDS011;34086;51.076;13.722;2023-12-29T04:15:59;1.58;;;1.48;;
48263;SDS011;34086;51.076;13.722;2023-12-29T04:16:59;2.42;;;1.92;;
48263;SDS011;34086;51.076;13.722;2023-12-29T04:18:03;1.60;;;1.50;;
48263;SDS011;34086;51.076;13.722;2023-12-29T04:19:04;1.60;;;1.50;;
48263;SDS011;34086;51.076;13.722;2023-12-29T04:20:04;1.50;;;1.40;;
48263;SDS011;34086;51.076;13.722;2023-12-29T04:21:05;1.58;;;1.48;;
48263;SDS011;34086;51.076;13.722;2023-12-29T04:22:09;2.55;;;1.40;;
48263;SDS011;34086;51.076;13.722;2023-12-29T04:23:09;1.70;;;1.60;;
48263;SDS011;34086;51.076;13.722;2023-12-29T04:24:11;2.10;;;1.90;;
48263;SDS011;34086;51.076;13.722;2023-12-29T04:25:12;3.13;;;1.60;;
48263;SDS011;34086;51.076;13.722;2023-12-29T04:26:12;1.60;;;1.40;;
48263;SDS011;34086;51.076;13.722;2023-12-29T04:27:13;2.35;;;1.60;;
48263;SDS011;34086;51.076;13.722;2023-12-29T04:28:15;3.20;;;1.77;;
48263;SDS011;34086;51.076;13.722;2023-12-29T04:29:16;2.35;;;1.60;;
48263;SDS011;34086;51.076;13.722;2023-12-29T04:30:16;2.10;;;1.70;;
48263;SDS011;34086;51.076;13.722;2023-12-29T04:31:17;1.70;;;1.60;;
48263;SDS011;34086;51.076;13.722;2023-12-29T04:32:17;1.80;;;1.70;;
48263;SDS011;34086;51.076;13.722;2023-12-29T04:33:18;1.70;;;1.60;;
48263;SDS011;34086;51.076;13.722;2023-12-29T04:34:18;2.72;;;1.80;;
48263;SDS011;34086;51.076;13.722;2023-12-29T04:35:19;1.90;;;1.70;;
48263;SDS011;34086;51.076;13.722;2023-12-29T04:36:20;3.38;;;1.90;;
48263;SDS011;34086;51.076;13.722;2023-12-29T04:37:20;2.40;;;1.70;;
48263;SDS011;34086;51.076;13.722;2023-12-29T04:38:21;1.80;;;1.70;;
48263;SDS011;34086;51.076;13.722;2023-12-29T04:39:22;1.80;;;1.70;;
48263;SDS011;34086;51.076;13.722;2023-12-29T04:40:22;2.10;;;1.90;;
48263;SDS011;34086;51.076;13.722;2023-12-29T04:41:23;2.63;;;1.90;;
48263;SDS011;34086;51.076;13.722;2023-12-29T04:42:23;2.45;;;1.83;;
48263;SDS011;34086;51.076;13.722;2023-12-29T04:43:24;2.72;;;1.80;;
48263;SDS011;34086;51.076;13.722;2023-12-29T04:44:24;2.22;;;1.88;;
48263;SDS011;34086;51.076;13.722;2023-12-29T04:45:25;2.10;;;1.90;;
48263;SDS011;34086;51.076;13.722;2023-12-29T04:46:25;2.65;;;1.90;;
48263;SDS011;34086;51.076;13.722;2023-12-29T04:47:26;2.65;;;2.03;;
48263;SDS011;34086;51.076;13.722;2023-12-29T04:48:26;2.42;;;2.03;;
48263;SDS011;34086;51.076;13.722;2023-12-29T04:49:27;2.10;;;1.90;;
48263;SDS011;34086;51.076;13.722;2023-12-29T04:50:27;2.38;;;1.95;;
48263;SDS011;34086;51.076;13.722;2023-12-29T04:51:28;2.00;;;1.80;;
48263;SDS011;34086;51.076;13.722;2023-12-29T04:52:29;2.13;;;1.92;;
48263;SDS011;34086;51.076;13.722;2023-12-29T04:53:29;2.80;;;1.92;;
48263;SDS011;34086;51.076;13.722;2023-12-29T04:54:30;2.83;;;2.00;;
48263;SDS011;34086;51.076;13.722;2023-12-29T04:55:30;2.63;;;2.10;;
48263;SDS011;34086;51.076;13.722;2023-12-29T04:56:31;3.22;;;1.90;;
48263;SDS011;34086;51.076;13.722;2023-12-29T04:57:31;2.20;;;2.00;;
48263;SDS011;34086;51.076;13.722;2023-12-29T04:58:32;2.00;;;1.90;;
48263;SDS011;34086;51.076;13.722;2023-12-29T04:59:32;2.17;;;1.98;;
48263;SDS011;34086;51.076;13.722;2023-12-29T05:00:33;3.40;;;2.00;;
48263;SDS011;34086;51.076;13.722;2023-12-29T05:01:34;2.63;;;2.10;;
48263;SDS011;34086;51.076;13.722;2023-12-29T05:02:34;2.20;;;2.00;;
48263;SDS011;34086;51.076;13.722;2023-12-29T05:03:35;2.13;;;1.90;;
48263;SDS011;34086;51.076;13.722;2023-12-29T05:04:35;2.30;;;1.90;;
48263;SDS011;34086;51.076;13.722;2023-12-29T05:05:38;2.30;;;2.10;;
48263;SDS011;34086;51.076;13.722;2023-12-29T05:06:38;3.95;;;3.20;;
48263;SDS011;34086;51.076;13.722;2023-12-29T05:07:39;5.82;;;3.92;;
48263;SDS011;34086;51.076;13.722;2023-12-29T05:08:39;8.60;;;7.03;;
48263;SDS011;34086;51.076;13.722;2023-12-29T05:09:40;14.10;;;11.48;;
48263;SDS011;34086;51.076;13.722;2023-12-29T05:10:40;8.10;;;6.93;;
48263;SDS011;34086;51.076;13.722;2023-12-29T05:11:41;6.70;;;4.30;;
48263;SDS011;34086;51.076;13.722;2023-12-29T05:12:41;5.22;;;4.05;;
48263;SDS011;34086;51.076;13.722;2023-12-29T05:13:42;5.40;;;3.83;;
48263;SDS011;34086;51.076;13.722;2023-12-29T05:14:42;2.33;;;2.13;;
48263;SDS011;34086;51.076;13.722;2023-12-29T05:15:43;4.68;;;3.45;;
48263;SDS011;34086;51.076;13.722;2023-12-29T05:16:44;3.97;;;3.10;;
48263;SDS011;34086;51.076;13.722;2023-12-29T05:17:44;4.95;;;2.80;;
48263;SDS011;34086;51.076;13.722;2023-12-29T05:18:45;4.18;;;2.03;;
48263;SDS011;34086;51.076;13.722;2023-12-29T05:19:45;3.55;;;2.10;;
48263;SDS011;34086;51.076;13.722;2023-12-29T05:20:46;3.20;;;2.13;;
48263;SDS011;34086;51.076;13.722;2023-12-29T05:21:47;4.05;;;2.22;;
48263;SDS011;34086;51.076;13.722;2023-12-29T05:22:51;3.08;;;2.20;;
48263;SDS011;34086;51.076;13.722;2023-12-29T05:23:52;2.92;;;2.10;;
48263;SDS011;34086;51.076;13.722;2023-12-29T05:24:52;2.78;;;2.10;;
48263;SDS011;34086;51.076;13.722;2023-12-29T05:25:57;3.53;;;2.00;;
48263;SDS011;34086;51.076;13.722;2023-12-29T05:26:58;3.13;;;2.45;;
48263;SDS011;34086;51.076;13.722;2023-12-29T05:27:58;4.63;;;3.00;;
48263;SDS011;34086;51.076;13.722;2023-12-29T05:28:59;3.03;;;2.60;;
48263;SDS011;34086;51.076;13.722;2023-12-29T05:30:00;5.50;;;4.07;;
48263;SDS011;34086;51.076;13.722;2023-12-29T05:31:00;3.47;;;2.90;;
48263;SDS011;34086;51.076;13.722;2023-12-29T05:32:04;4.10;;;3.47;;
48263;SDS011;34086;51.076;13.722;2023-12-29T05:33:05;5.00;;;3.75;;
48263;SDS011;34086;51.076;13.722;2023-12-29T05:34:06;3.60;;;2.28;;
48263;SDS011;34086;51.076;13.722;2023-12-29T05:35:07;4.90;;;3.38;;
48263;SDS011;34086;51.076;13.722;2023-12-29T05:36:08;2.83;;;2.20;;
48263;SDS011;34086;51.076;13.722;2023-12-29T05:37:10;3.33;;;2.30;;
48263;SDS011;34086;51.076;13.722;2023-12-29T05:38:10;3.13;;;2.50;;
48263;SDS011;34086;51.076;13.722;2023-12-29T05:39:11;3.45;;;2.33;;
48263;SDS011;34086;51.076;13.722;2023-12-29T05:40:11;3.55;;;2.42;;
48263;SDS011;34086;51.076;13.722;2023-12-29T05:41:12;4.20;;;2.85;;
48263;SDS011;34086;51.076;13.722;2023-12-29T05:42:13;4.20;;;3.17;;
48263;SDS011;34086;51.076;13.722;2023-12-29T05:43:17;4.57;;;2.80;;
48263;SDS011;34086;51.076;13.722;2023-12-29T05:44:19;2.83;;;2.60;;
48263;SDS011;34086;51.076;13.722;2023-12-29T05:45:19;3.63;;;2.70;;
48263;SDS011;34086;51.076;13.722;2023-12-29T05:46:20;2.75;;;2.42;;
48263;SDS011;34086;51.076;13.722;2023-12-29T05:47:20;2.72;;;2.20;;
48263;SDS011;34086;51.076;13.722;2023-12-29T05:48:21;3.08;;;2.40;;
48263;SDS011;34086;51.076;13.722;2023-12-29T05:49:24;3.58;;;2.40;;
48263;SDS011;34086;51.076;13.722;2023-12-29T05:50:26;3.10;;;2.33;;
48263;SDS011;34086;51.076;13.722;2023-12-29T05:51:26;5.20;;;2.22;;
48263;SDS011;34086;51.076;13.722;2023-12-29T05:52:27;4.20;;;2.15;;
48263;SDS011;34086;51.076;13.722;2023-12-29T05:53:28;2.92;;;2.50;;
48263;SDS011;34086;51.076;13.722;2023-12-29T05:54:29;5.70;;;2.88;;
48263;SDS011;34086;51.076;13.722;2023-12-29T05:55:29;3.33;;;2.50;;
48263;SDS011;34086;51.076;13.722;2023-12-29T05:56:30;3.58;;;2.58;;
48263;SDS011;34086;51.076;13.722;2023-12-29T05:57:30;4.53;;;2.58;;
48263;SDS011;34086;51.076;13.722;2023-12-29T05:58:31;4.63;;;3.38;;
48263;SDS011;34086;51.076;13.722;2023-12-29T05:59:32;2.90;;;2.50;;
48263;SDS011;34086;51.076;13.722;2023-12-29T06:00:32;5.28;;;2.30;;
48263;SDS011;34086;51.076;13.722;2023-12-29T06:01:33;2.88;;;2.50;;
48263;SDS011;34086;51.076;13.722;2023-12-29T06:02:33;3.90;;;3.28;;
48263;SDS011;34086;51.076;13.722;2023-12-29T06:03:34;3.65;;;3.17;;
48263;SDS011;34086;51.076;13.722;2023-12-29T06:04:34;3.40;;;3.10;;